Time;durP1;ratioP1;P1;durP2;ratioP2;P2;SDS_P1;SDS_P2;PMS_P1;PMS_P2;Temp;Humidity;BMP_temperature;BMP_pressure;BME280_temperature;BME280_humidity;BME280_pressure;Samples;Min_cycle;Max_cycle;Signal;HPM_P1;HPM_P2
2022/03/14 00:01:03;;;;;;;9.10;7.50;;;4.50;39.50;;;;;;5033249;28;20573;-56
2022/03/14 00:03:40;;;;;;;10.70;8.77;;;4.50;39.50;;;;;;5033416;28;20206;-53
2022/03/14 00:06:12;;;;;;;10.88;8.32;;;4.50;39.50;;;;;;5032739;28;20716;-54
2022/03/14 00:08:40;;;;;;;12.15;7.85;;;4.50;39.50;;;;;;5033122;28;20282;-54
2022/03/14 00:11:10;;;;;;;9.18;7.95;;;4.40;39.50;;;;;;5033041;28;20289;-54
2022/03/14 00:13:40;;;;;;;9.73;8.23;;;4.40;39.60;;;;;;5032669;28;20207;-54
2022/03/14 00:16:08;;;;;;;10.10;8.10;;;4.40;39.60;;;;;;5032866;28;20226;-54
2022/03/14 00:18:35;;;;;;;10.85;8.70;;;4.40;39.70;;;;;;5032614;28;20202;-54
2022/03/14 00:21:02;;;;;;;12.70;8.38;;;4.40;39.70;;;;;;5032751;28;20673;-55
2022/03/14 00:23:29;;;;;;;10.27;8.05;;;4.40;39.70;;;;;;5033306;28;20210;-55
2022/03/14 00:25:56;;;;;;;10.18;8.52;;;4.40;39.70;;;;;;5036359;28;20252;-54
2022/03/14 00:28:25;;;;;;;10.52;8.60;;;4.40;40.30;;;;;;5036822;28;20210;-54
2022/03/14 00:30:52;;;;;;;10.02;7.88;;;4.40;39.80;;;;;;5036880;28;20212;-55
2022/03/14 00:33:19;;;;;;;8.75;7.95;;;4.40;39.90;;;;;;5036983;28;20234;-55
2022/03/14 00:35:46;;;;;;;11.15;7.93;;;4.40;39.80;;;;;;5036588;28;20586;-54
2022/03/14 00:38:14;;;;;;;9.93;7.75;;;4.40;39.80;;;;;;5037063;28;20210;-57
2022/03/14 00:40:41;;;;;;;9.55;8.52;;;4.40;39.70;;;;;;5037005;28;20576;-55
2022/03/14 00:43:08;;;;;;;9.70;8.10;;;4.30;39.60;;;;;;5037269;28;20212;-56
2022/03/14 00:45:37;;;;;;;9.07;7.50;;;4.40;39.70;;;;;;5037397;28;20233;-55
2022/03/14 00:48:05;;;;;;;11.02;8.00;;;4.30;39.70;;;;;;5038036;28;20206;-54
2022/03/14 00:50:32;;;;;;;12.00;8.93;;;4.30;39.80;;;;;;5038776;28;20222;-53
2022/03/14 00:52:59;;;;;;;10.23;7.47;;;4.30;39.80;;;;;;5037849;28;20199;-55
2022/03/14 00:55:26;;;;;;;12.88;8.88;;;4.30;39.90;;;;;;5036322;28;20229;-54
2022/03/14 00:57:53;;;;;;;9.65;7.55;;;4.20;39.80;;;;;;5036091;28;20285;-54
2022/03/14 01:00:20;;;;;;;9.95;8.23;;;4.20;39.90;;;;;;5036683;28;20281;-51
2022/03/14 01:02:50;;;;;;;9.93;8.45;;;4.20;40.00;;;;;;5036775;28;20211;-53
2022/03/14 01:05:17;;;;;;;11.00;8.25;;;4.10;40.00;;;;;;5036517;28;20218;-55
2022/03/14 01:07:45;;;;;;;13.48;8.50;;;4.10;40.20;;;;;;5036247;28;20199;-55
2022/03/14 01:10:13;;;;;;;10.10;8.32;;;4.10;40.30;;;;;;5036659;28;20214;-55
2022/03/14 01:12:40;;;;;;;10.73;8.25;;;4.10;40.40;;;;;;5066585;22;20292;-58
2022/03/14 01:15:09;;;;;;;11.77;8.50;;;4.00;40.30;;;;;;5040807;28;20457;-57
2022/03/14 01:17:36;;;;;;;10.43;8.80;;;4.00;40.50;;;;;;5041910;28;20198;-59
2022/03/14 01:20:06;;;;;;;14.80;8.98;;;4.00;40.90;;;;;;5042700;28;20202;-59
2022/03/14 01:22:34;;;;;;;10.77;8.18;;;4.00;40.90;;;;;;5042557;28;20241;-58
2022/03/14 01:25:01;;;;;;;10.90;8.15;;;4.00;40.80;;;;;;5039052;28;20203;-59
2022/03/14 01:27:28;;;;;;;11.77;8.90;;;3.90;40.70;;;;;;5038295;28;20206;-58
2022/03/14 01:29:55;;;;;;;11.73;8.70;;;3.90;40.80;;;;;;5038256;28;20202;-58
2022/03/14 01:32:22;;;;;;;8.93;7.97;;;3.90;40.80;;;;;;5040555;28;20344;-59
2022/03/14 01:34:50;;;;;;;11.63;8.88;;;3.90;40.90;;;;;;5040446;28;20245;-58
2022/03/14 01:37:19;;;;;;;12.52;8.75;;;3.80;40.80;;;;;;5040797;28;20210;-59
2022/03/14 01:39:46;;;;;;;11.20;8.77;;;3.80;40.90;;;;;;5043387;28;20206;-58
2022/03/14 01:42:17;;;;;;;11.02;9.05;;;3.80;40.90;;;;;;5043528;28;20218;-58
2022/03/14 01:44:47;;;;;;;12.48;8.60;;;3.80;40.90;;;;;;5042653;28;20237;-59
2022/03/14 01:47:15;;;;;;;10.75;8.40;;;3.80;41.00;;;;;;5040873;28;20556;-58
2022/03/14 01:49:42;;;;;;;11.05;9.88;;;3.80;41.00;;;;;;5039459;28;20230;-59
2022/03/14 01:52:09;;;;;;;11.10;8.35;;;3.80;41.00;;;;;;5038025;28;20229;-58
2022/03/14 01:54:38;;;;;;;10.60;8.88;;;3.80;41.00;;;;;;5036593;28;20214;-58
2022/03/14 01:57:06;;;;;;;11.48;8.20;;;3.70;40.90;;;;;;5036836;28;20205;-60
2022/03/14 01:59:33;;;;;;;9.70;8.15;;;3.70;41.00;;;;;;5037641;28;20544;-58
2022/03/14 02:02:01;;;;;;;10.13;9.07;;;3.70;41.00;;;;;;5037584;28;20249;-57
2022/03/14 02:04:28;;;;;;;11.38;8.27;;;3.70;41.10;;;;;;5037167;28;20248;-58
2022/03/14 02:06:57;;;;;;;9.02;8.07;;;3.70;41.10;;;;;;5037801;28;20210;-58
2022/03/14 02:09:24;;;;;;;12.82;8.38;;;3.70;41.70;;;;;;5037746;28;20675;-58
2022/03/14 02:12:07;;;;;;;9.07;8.13;;;3.70;41.10;;;;;;5038543;28;20722;-59
2022/03/14 02:14:39;;;;;;;10.82;8.63;;;3.70;41.10;;;;;;5037096;28;20230;-58
2022/03/14 02:17:07;;;;;;;9.95;8.93;;;3.70;41.20;;;;;;5036508;28;20187;-59
2022/03/14 02:19:34;;;;;;;8.57;6.88;;;3.70;41.10;;;;;;5035962;28;20226;-59
2022/03/14 02:22:03;;;;;;;11.57;8.52;;;3.60;41.10;;;;;;5036045;28;20230;-58
2022/03/14 02:24:30;;;;;;;10.05;8.45;;;3.60;41.10;;;;;;5043048;28;20198;-58
2022/03/14 02:26:57;;;;;;;9.00;8.10;;;3.60;41.20;;;;;;5050480;28;20209;-59
2022/03/14 02:29:25;;;;;;;11.65;8.73;;;3.50;41.20;;;;;;5050769;28;20206;-58
2022/03/14 02:31:52;;;;;;;14.45;9.70;;;3.60;41.30;;;;;;5053671;28;20222;-59
2022/03/14 02:34:19;;;;;;;9.52;8.20;;;3.50;41.30;;;;;;5049320;28;20217;-58
2022/03/14 02:36:46;;;;;;;11.95;9.02;;;3.50;41.40;;;;;;5039603;28;20202;-58
2022/03/14 02:39:15;;;;;;;10.30;7.93;;;3.50;41.50;;;;;;5038449;28;20210;-58
2022/03/14 02:41:42;;;;;;;11.85;8.13;;;3.50;41.50;;;;;;5037290;28;20229;-57
2022/03/14 02:44:10;;;;;;;14.00;8.20;;;3.50;41.60;;;;;;5038209;28;20206;-58
2022/03/14 02:46:37;;;;;;;11.07;8.57;;;3.40;41.60;;;;;;5037574;28;20202;-58
2022/03/14 02:49:05;;;;;;;9.98;8.25;;;3.40;41.70;;;;;;5038050;28;20203;-58
2022/03/14 02:51:34;;;;;;;12.63;8.70;;;3.40;41.70;;;;;;5050628;28;20708;-58
2022/03/14 02:54:02;;;;;;;13.88;8.98;;;3.40;41.90;;;;;;5046489;28;20237;-58
2022/03/14 02:56:30;;;;;;;9.60;8.63;;;3.30;42.00;;;;;;5046827;28;20268;-58
2022/03/14 02:58:57;;;;;;;11.15;8.27;;;3.30;42.10;;;;;;5049575;28;20202;-58
2022/03/14 03:01:24;;;;;;;10.05;7.80;;;3.30;42.20;;;;;;5043781;28;20233;-58
2022/03/14 03:03:51;;;;;;;10.52;8.65;;;3.30;42.30;;;;;;5049636;28;20228;-59
2022/03/14 03:06:22;;;;;;;10.15;7.97;;;3.20;42.30;;;;;;5045114;28;20199;-58
2022/03/14 03:08:49;;;;;;;11.07;8.65;;;3.20;42.40;;;;;;5039149;28;20191;-58
2022/03/14 03:11:16;;;;;;;9.95;7.95;;;3.20;42.40;;;;;;5036837;28;20230;-59
2022/03/14 03:13:46;;;;;;;11.13;8.35;;;3.20;42.50;;;;;;5034997;28;20197;-58
2022/03/14 03:16:16;;;;;;;11.02;8.85;;;3.20;42.50;;;;;;5034074;28;20222;-58
2022/03/14 03:18:44;;;;;;;10.05;8.07;;;3.20;42.60;;;;;;5034578;28;20206;-59
2022/03/14 03:21:12;;;;;;;8.68;7.75;;;3.20;42.70;;;;;;5034352;28;20226;-58
2022/03/14 03:23:40;;;;;;;18.85;7.80;;;3.10;42.70;;;;;;5035162;28;20314;-58
2022/03/14 03:26:07;;;;;;;8.93;8.02;;;3.10;42.80;;;;;;5035484;28;20206;-57
2022/03/14 03:28:36;;;;;;;10.63;8.25;;;3.00;42.90;;;;;;5036288;28;20210;-58
2022/03/14 03:31:07;;;;;;;9.40;8.40;;;3.00;43.10;;;;;;5036758;28;20218;-58
2022/03/14 03:33:35;;;;;;;11.13;8.82;;;3.00;43.30;;;;;;5034082;28;20194;-58
2022/03/14 03:36:02;;;;;;;13.60;9.00;;;3.00;43.40;;;;;;5034228;28;20229;-58
2022/03/14 03:38:29;;;;;;;10.80;8.70;;;3.00;43.40;;;;;;5033805;28;20689;-58
2022/03/14 03:40:57;;;;;;;11.10;8.23;;;3.00;43.50;;;;;;5034320;28;20202;-58
2022/03/14 03:43:24;;;;;;;11.75;9.32;;;2.90;43.60;;;;;;5033773;28;20524;-58
2022/03/14 03:45:51;;;;;;;11.52;8.15;;;2.90;43.70;;;;;;5034295;28;20199;-58
2022/03/14 03:48:20;;;;;;;10.45;8.85;;;2.90;43.80;;;;;;5033968;28;20229;-58
2022/03/14 03:50:47;;;;;;;11.23;8.20;;;2.90;43.90;;;;;;5033871;28;20290;-58
2022/03/14 03:53:14;;;;;;;9.30;8.40;;;2.90;43.90;;;;;;5033656;28;20202;-58
2022/03/14 03:55:41;;;;;;;12.05;8.70;;;2.90;44.00;;;;;;5033322;28;20305;-59
2022/03/14 03:58:09;;;;;;;11.40;8.90;;;2.90;44.10;;;;;;5033517;28;20199;-58
2022/03/14 04:00:36;;;;;;;10.32;8.35;;;2.90;44.20;;;;;;5033325;28;20216;-58
2022/03/14 04:03:03;;;;;;;10.20;7.50;;;2.90;44.30;;;;;;5033407;28;20776;-59
2022/03/14 04:05:32;;;;;;;11.20;8.20;;;2.90;44.30;;;;;;5033968;28;20218;-59
2022/03/14 04:09:27;;;;;;;14.93;8.93;;;2.90;43.90;;;;;;5091650;27;20895;-59
2022/03/14 04:11:54;;;;;;;13.52;8.23;;;2.90;44.30;;;;;;5090691;28;20704;-58
2022/03/14 04:14:21;;;;;;;12.98;8.38;;;2.90;44.30;;;;;;5091032;28;20614;-59
2022/03/14 04:16:49;;;;;;;14.00;7.75;;;3.00;44.40;;;;;;5091008;28;20201;-59
2022/03/14 04:19:17;;;;;;;10.10;9.02;;;3.00;44.40;;;;;;5091095;28;20207;-58
2022/03/14 04:21:52;;;;;;;11.55;8.88;;;3.00;45.00;;;;;;5092100;28;20652;-58
2022/03/14 04:24:20;;;;;;;11.80;9.07;;;3.00;44.40;;;;;;5091131;28;20190;-58
2022/03/14 04:26:48;;;;;;;11.00;9.50;;;3.00;44.50;;;;;;5090586;28;20200;-60
2022/03/14 04:29:16;;;;;;;10.75;9.50;;;3.00;44.50;;;;;;5090749;28;20216;-58
2022/03/14 04:31:43;;;;;;;12.27;9.10;;;3.00;44.50;;;;;;5090580;28;20231;-59
2022/03/14 04:34:10;;;;;;;14.23;9.43;;;3.00;44.50;;;;;;5090711;28;20201;-59
2022/03/14 04:36:37;;;;;;;13.07;9.13;;;3.00;44.60;;;;;;5090837;28;20207;-58
2022/03/14 04:39:05;;;;;;;10.93;9.50;;;3.00;44.60;;;;;;5090860;28;20201;-59
2022/03/14 04:41:37;;;;;;;13.05;8.98;;;3.00;44.70;;;;;;5090826;28;20281;-59
2022/03/14 04:44:06;;;;;;;11.25;8.77;;;3.00;44.80;;;;;;5091074;28;20184;-59
2022/03/14 04:46:34;;;;;;;12.38;10.60;;;2.90;44.90;;;;;;5091076;28;20232;-59
2022/03/14 04:49:01;;;;;;;17.23;9.68;;;2.90;45.00;;;;;;5090857;28;20221;-58
2022/03/14 04:51:28;;;;;;;13.40;9.88;;;2.90;45.10;;;;;;5090207;28;20228;-59
2022/03/14 04:53:55;;;;;;;10.20;8.55;;;2.90;45.10;;;;;;5090722;28;20232;-58
2022/03/14 04:56:23;;;;;;;16.42;9.85;;;2.90;45.20;;;;;;5090554;28;20664;-59
2022/03/14 04:58:50;;;;;;;14.02;9.57;;;2.90;45.20;;;;;;5090707;28;20264;-59
2022/03/14 05:01:20;;;;;;;16.60;9.35;;;2.90;45.30;;;;;;5090432;28;20729;-59
2022/03/14 05:03:47;;;;;;;18.30;9.90;;;2.90;45.30;;;;;;5090890;28;20196;-58
2022/03/14 05:06:16;;;;;;;11.02;8.88;;;2.90;45.20;;;;;;5093449;28;20216;-58
2022/03/14 05:08:43;;;;;;;22.15;11.15;;;2.90;45.20;;;;;;5093099;28;20224;-58
2022/03/14 05:11:11;;;;;;;16.10;10.18;;;2.90;45.30;;;;;;5096014;28;20224;-58
2022/03/14 05:13:38;;;;;;;12.05;9.35;;;2.90;45.30;;;;;;5096307;28;20637;-59
2022/03/14 05:16:05;;;;;;;14.80;9.20;;;3.00;45.40;;;;;;5096769;28;20201;-58
2022/03/14 05:18:34;;;;;;;10.05;8.90;;;3.00;45.40;;;;;;5094987;28;20192;-58
2022/03/14 05:21:02;;;;;;;13.60;9.88;;;3.00;45.50;;;;;;5078133;28;20225;-59
2022/03/14 05:23:29;;;;;;;11.43;9.13;;;3.10;45.60;;;;;;5078132;28;20209;-59
2022/03/14 05:25:56;;;;;;;17.02;9.30;;;3.10;45.60;;;;;;5077929;28;20735;-59
2022/03/14 05:28:24;;;;;;;13.07;9.32;;;3.10;45.60;;;;;;5077723;28;20228;-59
2022/03/14 05:30:51;;;;;;;11.23;9.35;;;3.20;45.70;;;;;;5077034;28;20623;-58
2022/03/14 05:33:18;;;;;;;12.00;8.65;;;3.20;45.60;;;;;;5076791;28;20374;-59
2022/03/14 05:35:46;;;;;;;13.27;10.43;;;3.30;45.60;;;;;;5077037;28;20205;-59
2022/03/14 05:38:14;;;;;;;12.32;8.88;;;3.30;45.60;;;;;;5076904;28;20637;-59
2022/03/14 05:40:41;;;;;;;13.55;9.45;;;3.40;45.50;;;;;;5077502;28;20201;-59
2022/03/14 05:43:09;;;;;;;11.73;9.68;;;3.50;45.50;;;;;;5076062;28;20236;-59
2022/03/14 05:45:37;;;;;;;13.75;10.18;;;3.50;45.40;;;;;;5076297;28;20613;-58
2022/03/14 05:48:05;;;;;;;14.93;10.80;;;3.60;45.40;;;;;;5090267;28;20220;-59
2022/03/14 05:50:32;;;;;;;13.15;9.20;;;3.70;45.30;;;;;;5085146;28;20201;-58
2022/03/14 05:53:01;;;;;;;15.50;9.95;;;3.80;45.20;;;;;;5078488;28;20236;-58
2022/03/14 05:55:28;;;;;;;17.80;10.55;;;3.80;45.00;;;;;;5076568;28;20258;-58
2022/03/14 05:57:55;;;;;;;15.10;12.07;;;3.90;44.80;;;;;;5076342;28;20228;-59
2022/03/14 06:00:24;;;;;;;14.68;10.25;;;4.00;44.80;;;;;;5075645;28;20235;-58
2022/03/14 06:02:52;;;;;;;11.45;9.73;;;4.10;44.70;;;;;;5076024;28;20221;-58
2022/03/14 06:05:20;;;;;;;16.88;9.90;;;4.20;44.60;;;;;;5076542;28;20228;-58
2022/03/14 06:07:48;;;;;;;12.95;9.93;;;4.30;44.40;;;;;;5075981;28;20213;-58
2022/03/14 06:10:17;;;;;;;12.20;9.70;;;4.40;44.30;;;;;;5076514;28;20197;-57
2022/03/14 06:12:45;;;;;;;11.52;10.30;;;4.50;44.30;;;;;;5076430;28;20307;-58
2022/03/14 06:15:14;;;;;;;12.68;10.05;;;4.60;44.80;;;;;;5075991;28;20201;-59
2022/03/14 06:17:42;;;;;;;12.25;9.50;;;4.70;44.20;;;;;;5075007;28;20684;-59
2022/03/14 06:20:11;;;;;;;11.57;9.80;;;4.80;44.60;;;;;;5075254;28;20244;-59
2022/03/14 06:22:43;;;;;;;9.88;8.88;;;4.90;44.00;;;;;;5075018;28;20225;-57
2022/03/14 06:25:11;;;;;;;10.68;9.55;;;5.00;43.90;;;;;;5075322;28;20665;-59
2022/03/14 06:27:40;;;;;;;11.43;10.00;;;5.00;43.80;;;;;;5074719;28;20209;-59
2022/03/14 06:30:08;;;;;;;13.60;9.68;;;5.10;43.80;;;;;;5075092;28;20573;-58
2022/03/14 06:32:36;;;;;;;14.30;9.93;;;5.10;43.80;;;;;;5074085;28;20233;-60
2022/03/14 06:35:04;;;;;;;11.93;9.80;;;5.20;43.70;;;;;;5075109;28;20692;-59
2022/03/14 06:37:31;;;;;;;14.73;10.57;;;5.30;43.80;;;;;;5075333;28;20212;-58
2022/03/14 06:39:59;;;;;;;14.95;10.15;;;5.40;43.80;;;;;;5080049;28;20554;-59
2022/03/14 06:42:26;;;;;;;13.73;10.75;;;5.50;43.80;;;;;;5079195;28;20225;-59
2022/03/14 06:44:59;;;;;;;13.85;11.55;;;5.50;43.70;;;;;;5075139;28;20243;-60
2022/03/14 06:47:26;;;;;;;14.20;11.40;;;5.60;43.80;;;;;;5075510;28;20185;-60
2022/03/14 06:49:53;;;;;;;12.38;11.07;;;5.60;43.80;;;;;;5075173;28;20221;-58
2022/03/14 06:52:20;;;;;;;18.83;12.80;;;5.60;43.80;;;;;;5074911;28;20225;-59
2022/03/14 06:54:48;;;;;;;12.80;11.18;;;5.70;43.90;;;;;;5074407;28;20680;-59
2022/03/14 06:57:15;;;;;;;15.68;11.32;;;5.70;43.90;;;;;;5074872;28;20209;-59
2022/03/14 06:59:42;;;;;;;14.18;10.50;;;5.70;43.90;;;;;;5079446;28;20567;-59
2022/03/14 07:02:10;;;;;;;14.90;10.50;;;5.80;43.90;;;;;;5077734;28;20243;-58
2022/03/14 07:04:37;;;;;;;15.18;11.30;;;5.90;44.00;;;;;;5074864;28;20620;-59
2022/03/14 07:07:06;;;;;;;17.08;11.32;;;5.90;44.00;;;;;;5074657;28;20201;-58
2022/03/14 07:09:35;;;;;;;18.83;10.65;;;6.00;44.10;;;;;;5074374;28;20574;-59
2022/03/14 07:12:03;;;;;;;11.57;10.38;;;6.00;44.20;;;;;;5073654;28;20750;-59
2022/03/14 07:14:30;;;;;;;14.25;11.90;;;6.10;44.30;;;;;;5074406;28;20204;-60
2022/03/14 07:16:57;;;;;;;18.48;12.15;;;6.20;44.40;;;;;;5074581;28;20203;-58
2022/03/14 07:19:25;;;;;;;14.55;11.45;;;6.20;44.40;;;;;;5074227;28;20229;-59
2022/03/14 07:21:52;;;;;;;17.50;11.90;;;6.20;44.50;;;;;;5074423;28;20217;-59
2022/03/14 07:24:19;;;;;;;17.42;11.65;;;6.30;44.60;;;;;;5074592;28;20209;-59
2022/03/14 07:26:46;;;;;;;15.80;12.13;;;6.40;44.70;;;;;;5073879;28;20201;-58
2022/03/14 07:29:14;;;;;;;16.05;11.27;;;6.40;44.70;;;;;;5073984;28;20213;-58
2022/03/14 07:31:41;;;;;;;14.65;10.80;;;6.50;44.80;;;;;;5073964;28;20224;-59
2022/03/14 07:34:09;;;;;;;15.30;10.60;;;6.60;44.80;;;;;;5073976;28;20200;-59
2022/03/14 07:36:38;;;;;;;13.65;10.60;;;6.70;45.00;;;;;;5073814;28;20211;-60
2022/03/14 07:39:06;;;;;;;16.83;11.02;;;6.70;45.20;;;;;;5074742;28;20600;-60
2022/03/14 07:41:33;;;;;;;14.25;11.65;;;6.80;45.40;;;;;;5074063;28;20594;-59
2022/03/14 07:44:00;;;;;;;13.57;10.88;;;6.90;45.60;;;;;;5076358;28;20212;-59
2022/03/14 07:46:28;;;;;;;15.20;12.32;;;7.00;45.80;;;;;;5088485;28;20235;-60
2022/03/14 07:48:55;;;;;;;16.98;11.75;;;7.10;46.20;;;;;;5083216;28;20220;-58
2022/03/14 07:51:22;;;;;;;14.90;10.88;;;7.20;46.60;;;;;;5074158;28;20681;-59
2022/03/14 07:53:51;;;;;;;12.38;10.70;;;7.30;46.90;;;;;;5073926;28;20223;-58
2022/03/14 07:56:18;;;;;;;17.60;11.18;;;7.40;47.40;;;;;;5074030;28;20252;-59
2022/03/14 07:58:45;;;;;;;15.65;11.60;;;7.50;47.90;;;;;;5074197;28;20212;-59
2022/03/14 08:01:12;;;;;;;14.18;12.00;;;7.70;48.30;;;;;;5073776;28;20705;-57
2022/03/14 08:03:39;;;;;;;14.80;12.18;;;7.80;48.60;;;;;;5074058;28;20211;-59
2022/03/14 08:06:07;;;;;;;16.60;10.88;;;8.00;49.00;;;;;;5074168;28;20524;-59
2022/03/14 08:08:35;;;;;;;14.52;10.98;;;8.10;49.50;;;;;;5073511;28;20253;-59
2022/03/14 08:11:04;;;;;;;14.50;12.05;;;8.30;50.10;;;;;;5074751;28;20229;-58
2022/03/14 08:13:31;;;;;;;19.45;12.68;;;8.40;50.60;;;;;;5075145;28;20207;-59
2022/03/14 08:15:59;;;;;;;15.25;11.50;;;8.60;51.10;;;;;;5074879;28;20223;-59
2022/03/14 08:18:26;;;;;;;16.42;11.95;;;8.70;51.50;;;;;;5074557;28;20200;-59
2022/03/14 08:20:57;;;;;;;15.82;11.95;;;8.80;52.00;;;;;;5074803;28;20201;-59
2022/03/14 08:23:24;;;;;;;14.65;10.98;;;8.90;52.30;;;;;;5074051;28;20238;-59
2022/03/14 08:25:51;;;;;;;20.50;13.75;;;9.00;52.60;;;;;;5074034;28;20201;-58
2022/03/14 08:28:20;;;;;;;17.05;12.73;;;9.10;52.90;;;;;;5073593;28;20205;-58
2022/03/14 08:30:48;;;;;;;16.88;14.35;;;9.20;53.20;;;;;;5073534;28;20208;-59
2022/03/14 08:33:16;;;;;;;16.50;13.30;;;9.30;53.60;;;;;;5072867;28;20672;-59
2022/03/14 08:35:44;;;;;;;17.20;12.70;;;9.40;53.90;;;;;;5073366;28;20455;-59
2022/03/14 08:38:13;;;;;;;15.53;12.70;;;9.50;54.10;;;;;;5073134;28;20490;-58
2022/03/14 08:40:40;;;;;;;15.50;13.10;;;9.60;54.20;;;;;;5072700;28;20496;-57
2022/03/14 08:43:08;;;;;;;14.80;12.60;;;9.70;54.50;;;;;;5073722;28;20458;-60
2022/03/14 08:45:36;;;;;;;14.80;12.53;;;9.80;55.00;;;;;;5073575;28;20793;-59
2022/03/14 08:48:05;;;;;;;17.97;13.03;;;9.80;55.60;;;;;;5073380;28;20447;-59
2022/03/14 08:50:33;;;;;;;17.87;13.83;;;9.90;56.40;;;;;;5072868;28;20479;-58
2022/03/14 08:53:00;;;;;;;16.70;13.27;;;9.90;57.20;;;;;;5073090;28;20511;-58
2022/03/14 08:55:27;;;;;;;16.17;13.10;;;10.00;57.20;;;;;;5075899;28;20513;-58
2022/03/14 08:57:55;;;;;;;17.03;14.00;;;10.00;58.10;;;;;;5077667;28;20526;-59
2022/03/14 09:00:24;;;;;;;17.53;12.10;;;10.10;59.80;;;;;;5077054;28;20919;-59
2022/03/14 09:02:52;;;;;;;15.70;11.80;;;10.10;60.40;;;;;;5077155;28;20478;-58
2022/03/14 09:05:19;;;;;;;16.63;11.93;;;10.20;62.40;;;;;;5077078;28;20443;-59
2022/03/14 09:07:47;;;;;;;13.97;11.37;;;10.20;65.20;;;;;;5076786;28;20487;-59
2022/03/14 09:10:15;;;;;;;13.30;10.40;;;10.30;67.90;;;;;;5076591;28;20483;-59
2022/03/14 09:12:43;;;;;;;13.60;10.80;;;10.40;70.50;;;;;;5076864;28;20482;-59
2022/03/14 09:15:11;;;;;;;12.77;11.47;;;10.40;73.50;;;;;;5076736;28;20881;-59
2022/03/14 09:17:47;;;;;;;13.00;9.90;;;10.50;75.90;;;;;;5077517;28;20505;-60
2022/03/14 09:20:17;;;;;;;13.37;10.07;;;10.60;78.20;;;;;;5083978;28;20423;-59
2022/03/14 09:22:45;;;;;;;11.87;10.00;;;10.60;80.20;;;;;;5085705;28;20844;-60
2022/03/14 09:25:14;;;;;;;12.20;9.67;;;10.60;81.50;;;;;;5085963;28;20504;-59
2022/03/14 09:27:42;;;;;;;11.90;9.97;;;10.70;82.70;;;;;;5087975;28;20443;-59
2022/03/14 09:30:11;;;;;;;12.50;10.47;;;10.80;83.50;;;;;;5089563;28;20471;-59
2022/03/14 09:32:38;;;;;;;12.97;10.40;;;10.90;83.80;;;;;;5077238;28;20471;-59
2022/03/14 09:35:06;;;;;;;12.23;11.00;;;10.90;84.10;;;;;;5077149;28;20451;-59
2022/03/14 09:37:37;;;;;;;11.50;9.60;;;11.00;84.80;;;;;;5077109;28;20451;-59
2022/03/14 09:40:06;;;;;;;11.57;9.90;;;11.00;85.60;;;;;;5076542;28;20428;-59
2022/03/14 09:42:36;;;;;;;11.27;9.47;;;11.00;87.10;;;;;;5077340;28;20467;-58
2022/03/14 09:45:04;;;;;;;11.93;7.70;;;11.00;87.20;;;;;;5091668;28;20432;-59
2022/03/14 09:47:36;;;;;;;7.03;6.33;;;11.00;87.70;;;;;;5089020;28;20439;-60
2022/03/14 09:50:05;;;;;;;7.60;6.80;;;11.00;87.80;;;;;;5077061;28;20513;-59
2022/03/14 09:52:36;;;;;;;9.10;7.60;;;11.00;87.60;;;;;;5076270;28;20474;-60
2022/03/14 09:55:05;;;;;;;9.23;7.20;;;11.00;87.40;;;;;;5075629;28;20438;-59
2022/03/14 09:57:32;;;;;;;7.20;6.50;;;10.90;87.50;;;;;;5075887;28;20442;-58
2022/03/14 10:00:00;;;;;;;7.87;6.53;;;10.80;88.20;;;;;;5075486;28;20442;-59
2022/03/14 10:02:29;;;;;;;8.77;7.57;;;10.80;89.40;;;;;;5075714;28;20466;-60
2022/03/14 10:04:56;;;;;;;10.97;8.13;;;10.60;90.40;;;;;;5075752;28;20534;-59
2022/03/14 10:07:23;;;;;;;9.27;7.63;;;10.40;91.30;;;;;;5075554;28;20907;-59
2022/03/14 10:09:54;;;;;;;8.93;7.93;;;10.20;92.30;;;;;;5076271;28;20463;-59
2022/03/14 10:12:21;;;;;;;9.20;8.00;;;10.10;93.40;;;;;;5076284;28;20533;-59
2022/03/14 10:14:48;;;;;;;12.30;9.17;;;9.90;95.00;;;;;;5076260;28;20451;-59
2022/03/14 10:17:15;;;;;;;9.07;8.07;;;9.70;95.90;;;;;;5076276;28;20451;-58
2022/03/14 10:19:42;;;;;;;9.48;7.78;;;9.70;96.70;;;;;;5075914;28;20447;-59
2022/03/14 10:22:14;;;;;;;9.47;8.50;;;9.60;97.30;;;;;;5076520;28;20618;-60
2022/03/14 10:24:43;;;;;;;10.80;8.93;;;9.60;98.00;;;;;;5075144;28;20935;-59
2022/03/14 10:27:13;;;;;;;9.30;8.35;;;9.50;98.50;;;;;;5075370;28;20231;-59
2022/03/14 10:29:42;;;;;;;9.88;8.50;;;9.50;99.00;;;;;;5075064;28;20676;-59
2022/03/14 10:32:28;;;;;;;9.52;8.52;;;9.50;99.50;;;;;;5074779;28;20220;-59
2022/03/14 10:34:58;;;;;;;11.82;8.75;;;9.40;99.90;;;;;;5075041;28;20215;-58
2022/03/14 10:37:27;;;;;;;12.88;9.32;;;9.40;99.90;;;;;;5074954;28;20201;-59
2022/03/14 10:39:58;;;;;;;10.70;9.60;;;9.40;99.90;;;;;;5075189;28;20252;-60
2022/03/14 10:42:27;;;;;;;13.73;10.32;;;9.30;99.90;;;;;;5075045;28;20276;-58
2022/03/14 10:44:55;;;;;;;13.45;9.65;;;9.30;99.90;;;;;;5075342;28;20197;-60
2022/03/14 10:47:26;;;;;;;14.43;10.15;;;9.30;99.90;;;;;;5075146;28;20201;-61
2022/03/14 10:49:54;;;;;;;12.23;10.50;;;9.30;99.90;;;;;;5074783;28;20208;-58
2022/03/14 10:52:22;;;;;;;16.65;10.75;;;9.30;99.90;;;;;;5075178;28;20217;-61
2022/03/14 10:54:50;;;;;;;13.40;10.57;;;9.20;99.90;;;;;;5074532;28;20614;-59
2022/03/14 10:57:20;;;;;;;12.20;10.43;;;9.20;99.90;;;;;;5075816;28;20449;-61
2022/03/14 10:59:50;;;;;;;15.13;9.90;;;9.20;99.90;;;;;;5076139;28;20228;-61
2022/03/14 11:02:21;;;;;;;12.15;10.95;;;9.20;99.90;;;;;;5075605;28;20228;-60
2022/03/14 11:04:50;;;;;;;13.50;11.00;;;9.20;99.90;;;;;;5075811;28;20185;-59
2022/03/14 11:07:18;;;;;;;10.50;9.40;;;9.30;99.90;;;;;;5076385;28;20454;-60
2022/03/14 11:09:47;;;;;;;9.45;8.45;;;9.30;99.90;;;;;;5076726;28;20216;-59
2022/03/14 11:12:16;;;;;;;10.13;8.50;;;9.40;99.90;;;;;;5076944;28;20624;-60
2022/03/14 11:14:51;;;;;;;10.50;9.40;;;9.50;99.90;;;;;;5075681;28;20486;-59
2022/03/14 11:17:21;;;;;;;9.20;7.70;;;9.50;99.90;;;;;;5074490;28;20181;-60
2022/03/14 11:19:48;;;;;;;8.73;7.60;;;9.60;99.90;;;;;;5074749;28;20846;-59
2022/03/14 11:22:17;;;;;;;8.50;7.40;;;9.70;99.90;;;;;;5075246;28;20240;-59
2022/03/14 11:24:46;;;;;;;9.40;8.40;;;9.70;99.90;;;;;;5075099;28;20454;-58
2022/03/14 11:27:21;;;;;;;8.97;8.07;;;9.80;99.90;;;;;;5074690;28;20451;-60
2022/03/14 11:29:50;;;;;;;9.90;8.70;;;9.90;99.90;;;;;;5074413;28;20963;-59
2022/03/14 11:32:18;;;;;;;8.70;7.80;;;10.00;99.90;;;;;;5074851;28;20486;-57
2022/03/14 11:34:47;;;;;;;6.93;6.23;;;10.20;99.90;;;;;;5074441;28;20451;-60
2022/03/14 11:37:15;;;;;;;8.63;7.10;;;10.30;99.90;;;;;;5080438;28;20534;-59
2022/03/14 11:39:43;;;;;;;9.30;6.60;;;10.30;99.90;;;;;;5081588;28;20435;-59
2022/03/14 11:42:12;;;;;;;8.93;6.77;;;10.30;99.90;;;;;;5074279;28;20463;-57
2022/03/14 11:44:41;;;;;;;6.87;6.27;;;10.40;99.90;;;;;;5074197;28;20890;-59
2022/03/14 11:47:12;;;;;;;7.53;6.10;;;10.40;99.90;;;;;;5074892;28;20493;-59
2022/03/14 11:49:40;;;;;;;7.20;6.20;;;10.50;99.90;;;;;;5074323;28;20927;-59
2022/03/14 11:52:13;;;;;;;5.83;5.33;;;10.60;99.90;;;;;;5074000;28;20467;-59
2022/03/14 11:54:43;;;;;;;6.60;5.90;;;10.70;99.90;;;;;;5074430;28;20931;-57
2022/03/14 11:57:11;;;;;;;7.03;6.00;;;10.80;99.90;;;;;;5073998;28;20447;-60
2022/03/14 11:59:38;;;;;;;4.57;4.17;;;10.90;99.90;;;;;;5074624;28;20443;-58
2022/03/14 12:02:07;;;;;;;5.03;4.20;;;10.90;99.90;;;;;;5074964;28;20467;-56
2022/03/14 12:04:37;;;;;;;5.00;4.30;;;10.90;99.90;;;;;;5074244;28;20460;-58
2022/03/14 12:07:06;;;;;;;5.13;4.63;;;10.80;99.90;;;;;;5075044;28;20435;-57
2022/03/14 12:09:48;;;;;;;6.27;5.70;;;10.60;99.90;;;;;;5086341;28;20805;-59
2022/03/14 12:12:34;;;;;;;5.87;5.27;;;10.50;99.90;;;;;;5087817;28;20463;-59
2022/03/14 12:15:03;;;;;;;5.80;5.20;;;10.40;99.90;;;;;;5087740;28;20431;-59
2022/03/14 12:17:32;;;;;;;4.97;4.47;;;10.40;99.90;;;;;;5091652;28;20458;-60
2022/03/14 12:20:03;;;;;;;4.97;4.47;;;10.30;99.90;;;;;;5089131;28;20443;-60
2022/03/14 12:22:46;;;;;;;5.77;4.90;;;10.10;99.90;;;;;;5091037;28;20443;-61
2022/03/14 12:25:41;;;;;;;6.43;5.73;;;10.00;99.90;;;;;;5091486;28;20423;-61
2022/03/14 12:28:29;;;;;;;6.60;5.53;;;9.90;99.90;;;;;;5089395;28;20431;-61
2022/03/14 12:31:11;;;;;;;6.73;6.00;;;9.90;99.90;;;;;;5091446;28;20479;-61
2022/03/14 12:33:40;;;;;;;6.80;6.00;;;9.70;99.90;;;;;;5094633;28;20533;-60
2022/03/14 12:36:34;;;;;;;7.43;5.40;;;9.70;99.90;;;;;;5093090;28;20440;-60
2022/03/14 12:39:25;;;;;;;5.07;4.57;;;9.70;99.90;;;;;;5095375;28;20473;-61
2022/03/14 12:41:53;;;;;;;7.40;5.90;;;9.60;99.90;;;;;;5086160;28;20459;-60
2022/03/14 12:44:21;;;;;;;6.80;6.00;;;9.50;99.90;;;;;;5083812;28;20459;-59
2022/03/14 12:46:51;;;;;;;10.40;7.03;;;9.40;99.90;;;;;;5082857;28;20446;-60
2022/03/14 12:49:25;;;;;;;6.70;5.85;;;9.40;99.90;;;;;;5083686;28;20439;-59
2022/03/14 12:52:14;;;;;;;12.52;7.78;;;9.40;99.90;;;;;;5083641;28;20224;-59
2022/03/14 12:54:42;;;;;;;10.48;8.05;;;9.30;99.90;;;;;;5082531;28;20193;-59